Sydney, Australia
Current Conditions -  °F | °C
As of 9:00 PM on Saturday 20 Dec 2014 (Local Time) from YSSY Reporting Station
Clear Clear  
Wind Chill: 68°   Ceiling: Unl
Heat Index: 68°   Visibility: 6mi
Dew Point: 54°   Wind: 10mph
Humidity: 60%   Direction: 50°NE
Pressure: 30.06"   Gusts: NA
Location:  33.87°S, 151.21°E
Report Text: YSSY 201000Z 05009KT CAVOK 20/12 Q1018 NOSIG
Loading
Personal Weather Stations






























Interactive Weather Map New forecast layout! Learn more

10-Day Weather Forecast

Advertisements
Track Severe Weather on mobile